Terminal Aerodrome Forecast
Issued by NWS

Home | Current Version | Previous Version | Text Only | Print | Product List | Glossary On
Versions: 1 2 3 4 5 6 7 8 9 10 11 12 13 14
000
FTUS41 KPBZ 201736
TAFMGW
TAF
KMGW 201736Z 2018/2118 22012G20KT P6SM SCT035
     FM210000 24008KT P6SM BKN025
     FM210300 23006KT P6SM OVC015
     FM210700 20006KT 4SM BR VCSH BKN010
     FM211500 21005KT P6SM VCSH OVC020=

USA.gov is the U.S. government's official web portal to all federal, state and local government web resources and services.